sensor_id;sensor_type;location;lat;lon;timestamp;temperature;humidity
32502;DHT22;18952;52.516;13.460;2023-08-31T00:00:29;15.90;99.90
32502;DHT22;18952;52.516;13.460;2023-08-31T00:02:56;15.90;99.90
32502;DHT22;18952;52.516;13.460;2023-08-31T00:05:23;15.90;99.90
32502;DHT22;18952;52.516;13.460;2023-08-31T00:07:50;15.90;99.90
32502;DHT22;18952;52.516;13.460;2023-08-31T00:10:17;15.90;99.90
32502;DHT22;18952;52.516;13.460;2023-08-31T00:12:44;15.90;99.90
32502;DHT22;18952;52.516;13.460;2023-08-31T00:15:11;15.90;99.90
32502;DHT22;18952;52.516;13.460;2023-08-31T00:17:37;15.90;99.90
32502;DHT22;18952;52.516;13.460;2023-08-31T00:20:06;15.90;99.90
32502;DHT22;18952;52.516;13.460;2023-08-31T00:22:33;15.90;99.90
32502;DHT22;18952;52.516;13.460;2023-08-31T00:25:00;15.90;99.90
32502;DHT22;18952;52.516;13.460;2023-08-31T00:27:27;15.90;99.90
32502;DHT22;18952;52.516;13.460;2023-08-31T00:29:54;15.90;99.90
32502;DHT22;18952;52.516;13.460;2023-08-31T00:32:20;15.90;99.90
32502;DHT22;18952;52.516;13.460;2023-08-31T00:34:48;15.90;99.90
32502;DHT22;18952;52.516;13.460;2023-08-31T00:37:14;15.90;99.90
32502;DHT22;18952;52.516;13.460;2023-08-31T00:39:41;15.90;99.90
32502;DHT22;18952;52.516;13.460;2023-08-31T00:42:08;15.90;99.90
32502;DHT22;18952;52.516;13.460;2023-08-31T00:44:35;15.90;99.90
32502;DHT22;18952;52.516;13.460;2023-08-31T00:47:02;16.00;99.90
32502;DHT22;18952;52.516;13.460;2023-08-31T00:49:29;15.90;99.90
32502;DHT22;18952;52.516;13.460;2023-08-31T00:51:56;15.90;99.90
32502;DHT22;18952;52.516;13.460;2023-08-31T00:54:23;15.90;99.90
32502;DHT22;18952;52.516;13.460;2023-08-31T00:56:54;15.90;99.90
32502;DHT22;18952;52.516;13.460;2023-08-31T00:59:20;15.90;99.90
32502;DHT22;18952;52.516;13.460;2023-08-31T01:04:53;15.90;99.90
32502;DHT22;18952;52.516;13.460;2023-08-31T01:07:53;15.90;99.90
32502;DHT22;18952;52.516;13.460;2023-08-31T01:10:47;15.80;99.90
32502;DHT22;18952;52.516;13.460;2023-08-31T01:13:21;15.80;99.90
32502;DHT22;18952;52.516;13.460;2023-08-31T01:16:00;15.70;99.90
32502;DHT22;18952;52.516;13.460;2023-08-31T01:18:31;15.60;99.90
32502;DHT22;18952;52.516;13.460;2023-08-31T01:23:55;15.50;99.90
32502;DHT22;18952;52.516;13.460;2023-08-31T01:26:23;15.50;99.90
32502;DHT22;18952;52.516;13.460;2023-08-31T01:28:51;15.40;99.90
32502;DHT22;18952;52.516;13.460;2023-08-31T01:31:19;15.30;99.90
32502;DHT22;18952;52.516;13.460;2023-08-31T01:33:45;15.20;99.90
32502;DHT22;18952;52.516;13.460;2023-08-31T01:36:20;15.10;99.90
32502;DHT22;18952;52.516;13.460;2023-08-31T01:39:03;15.10;99.90
32502;DHT22;18952;52.516;13.460;2023-08-31T01:41:35;15.00;99.90
32502;DHT22;18952;52.516;13.460;2023-08-31T01:44:03;15.00;99.90
32502;DHT22;18952;52.516;13.460;2023-08-31T01:46:31;14.90;99.90
32502;DHT22;18952;52.516;13.460;2023-08-31T01:48:58;14.90;99.90
32502;DHT22;18952;52.516;13.460;2023-08-31T01:51:25;14.90;99.90
32502;DHT22;18952;52.516;13.460;2023-08-31T01:53:52;14.80;99.90
32502;DHT22;18952;52.516;13.460;2023-08-31T01:56:18;14.70;99.90
32502;DHT22;18952;52.516;13.460;2023-08-31T01:58:45;14.60;99.90
32502;DHT22;18952;52.516;13.460;2023-08-31T02:01:12;14.50;99.90
32502;DHT22;18952;52.516;13.460;2023-08-31T02:03:39;14.40;99.90
32502;DHT22;18952;52.516;13.460;2023-08-31T02:06:06;14.30;99.90
32502;DHT22;18952;52.516;13.460;2023-08-31T02:08:33;14.30;99.90
32502;DHT22;18952;52.516;13.460;2023-08-31T02:10:59;14.20;99.90
32502;DHT22;18952;52.516;13.460;2023-08-31T02:13:27;14.10;99.90
32502;DHT22;18952;52.516;13.460;2023-08-31T02:15:54;14.10;99.90
32502;DHT22;18952;52.516;13.460;2023-08-31T02:18:21;14.10;99.90
32502;DHT22;18952;52.516;13.460;2023-08-31T02:20:47;14.00;99.90
32502;DHT22;18952;52.516;13.460;2023-08-31T02:23:14;14.00;99.90
32502;DHT22;18952;52.516;13.460;2023-08-31T02:25:41;13.90;99.90
32502;DHT22;18952;52.516;13.460;2023-08-31T02:28:08;13.90;99.90
32502;DHT22;18952;52.516;13.460;2023-08-31T02:30:35;13.90;99.90
32502;DHT22;18952;52.516;13.460;2023-08-31T02:33:01;13.80;99.90
32502;DHT22;18952;52.516;13.460;2023-08-31T02:35:28;13.70;99.90
32502;DHT22;18952;52.516;13.460;2023-08-31T02:37:55;13.70;99.90
32502;DHT22;18952;52.516;13.460;2023-08-31T02:40:22;13.70;99.90
32502;DHT22;18952;52.516;13.460;2023-08-31T02:42:52;13.80;99.90
32502;DHT22;18952;52.516;13.460;2023-08-31T02:45:19;13.80;99.90
32502;DHT22;18952;52.516;13.460;2023-08-31T02:47:45;13.70;99.90
32502;DHT22;18952;52.516;13.460;2023-08-31T02:50:12;13.70;99.90
32502;DHT22;18952;52.516;13.460;2023-08-31T02:52:40;13.60;99.90
32502;DHT22;18952;52.516;13.460;2023-08-31T02:55:07;13.60;99.90
32502;DHT22;18952;52.516;13.460;2023-08-31T02:57:34;13.50;99.90
32502;DHT22;18952;52.516;13.460;2023-08-31T03:00:01;13.50;99.90
32502;DHT22;18952;52.516;13.460;2023-08-31T03:02:28;13.40;99.90
32502;DHT22;18952;52.516;13.460;2023-08-31T03:04:55;13.50;99.90
32502;DHT22;18952;52.516;13.460;2023-08-31T03:07:23;13.50;99.90
32502;DHT22;18952;52.516;13.460;2023-08-31T03:09:50;13.50;99.90
32502;DHT22;18952;52.516;13.460;2023-08-31T03:12:17;13.50;99.90
32502;DHT22;18952;52.516;13.460;2023-08-31T03:14:43;13.50;99.90
32502;DHT22;18952;52.516;13.460;2023-08-31T03:17:10;13.50;99.90
32502;DHT22;18952;52.516;13.460;2023-08-31T03:19:37;13.40;99.90
32502;DHT22;18952;52.516;13.460;2023-08-31T03:22:04;13.40;99.90
32502;DHT22;18952;52.516;13.460;2023-08-31T03:24:34;13.40;99.90
32502;DHT22;18952;52.516;13.460;2023-08-31T03:27:01;13.40;99.90
32502;DHT22;18952;52.516;13.460;2023-08-31T03:29:28;13.40;99.90
32502;DHT22;18952;52.516;13.460;2023-08-31T03:31:55;13.40;99.90
32502;DHT22;18952;52.516;13.460;2023-08-31T03:34:22;13.30;99.90
32502;DHT22;18952;52.516;13.460;2023-08-31T03:36:49;13.40;99.90
32502;DHT22;18952;52.516;13.460;2023-08-31T03:39:16;13.40;99.90
32502;DHT22;18952;52.516;13.460;2023-08-31T03:41:42;13.40;99.90
32502;DHT22;18952;52.516;13.460;2023-08-31T03:44:09;13.40;99.90
32502;DHT22;18952;52.516;13.460;2023-08-31T03:46:36;13.40;99.90
32502;DHT22;18952;52.516;13.460;2023-08-31T03:49:03;13.40;99.90
32502;DHT22;18952;52.516;13.460;2023-08-31T03:51:30;13.40;99.90
32502;DHT22;18952;52.516;13.460;2023-08-31T03:53:56;13.40;99.90
32502;DHT22;18952;52.516;13.460;2023-08-31T03:56:23;13.40;99.90
32502;DHT22;18952;52.516;13.460;2023-08-31T03:58:50;13.40;99.90
32502;DHT22;18952;52.516;13.460;2023-08-31T04:01:17;13.50;99.90
32502;DHT22;18952;52.516;13.460;2023-08-31T04:03:44;13.50;99.90
32502;DHT22;18952;52.516;13.460;2023-08-31T04:06:11;13.40;99.90
32502;DHT22;18952;52.516;13.460;2023-08-31T04:08:37;13.30;99.90
32502;DHT22;18952;52.516;13.460;2023-08-31T04:11:04;13.30;99.90
32502;DHT22;18952;52.516;13.460;2023-08-31T04:13:31;13.30;99.90
32502;DHT22;18952;52.516;13.460;2023-08-31T04:15:58;13.30;99.90
32502;DHT22;18952;52.516;13.460;2023-08-31T04:18:25;13.30;99.90
32502;DHT22;18952;52.516;13.460;2023-08-31T04:20:53;13.30;99.90
32502;DHT22;18952;52.516;13.460;2023-08-31T04:23:20;13.20;99.90
32502;DHT22;18952;52.516;13.460;2023-08-31T04:25:47;13.20;99.90
32502;DHT22;18952;52.516;13.460;2023-08-31T04:28:14;13.10;99.90
32502;DHT22;18952;52.516;13.460;2023-08-31T04:30:41;13.10;99.90
32502;DHT22;18952;52.516;13.460;2023-08-31T04:33:08;13.10;99.90
32502;DHT22;18952;52.516;13.460;2023-08-31T04:35:35;13.10;99.90
32502;DHT22;18952;52.516;13.460;2023-08-31T04:38:02;13.00;99.90
32502;DHT22;18952;52.516;13.460;2023-08-31T04:40:29;13.00;99.90
32502;DHT22;18952;52.516;13.460;2023-08-31T04:42:57;13.10;99.90
32502;DHT22;18952;52.516;13.460;2023-08-31T04:45:24;13.10;99.90
32502;DHT22;18952;52.516;13.460;2023-08-31T04:47:51;13.10;99.90
32502;DHT22;18952;52.516;13.460;2023-08-31T04:50:18;13.20;99.90
32502;DHT22;18952;52.516;13.460;2023-08-31T04:52:45;13.10;99.90
32502;DHT22;18952;52.516;13.460;2023-08-31T04:55:13;13.10;99.90
32502;DHT22;18952;52.516;13.460;2023-08-31T04:57:40;13.10;99.90
32502;DHT22;18952;52.516;13.460;2023-08-31T05:00:07;13.10;99.90
32502;DHT22;18952;52.516;13.460;2023-08-31T05:02:34;13.10;99.90
32502;DHT22;18952;52.516;13.460;2023-08-31T05:05:01;13.10;99.90
32502;DHT22;18952;52.516;13.460;2023-08-31T05:07:28;13.10;99.90
32502;DHT22;18952;52.516;13.460;2023-08-31T05:09:54;13.10;99.90
32502;DHT22;18952;52.516;13.460;2023-08-31T05:12:22;13.10;99.90
32502;DHT22;18952;52.516;13.460;2023-08-31T05:14:48;13.10;99.90
32502;DHT22;18952;52.516;13.460;2023-08-31T05:17:15;13.10;99.90
32502;DHT22;18952;52.516;13.460;2023-08-31T05:19:42;13.10;99.90
32502;DHT22;18952;52.516;13.460;2023-08-31T05:22:09;13.20;99.90
32502;DHT22;18952;52.516;13.460;2023-08-31T05:24:36;13.20;99.90
32502;DHT22;18952;52.516;13.460;2023-08-31T05:27:03;13.20;99.90
32502;DHT22;18952;52.516;13.460;2023-08-31T05:29:30;13.20;99.90
32502;DHT22;18952;52.516;13.460;2023-08-31T05:31:57;13.20;99.90
32502;DHT22;18952;52.516;13.460;2023-08-31T05:34:25;13.20;99.90
32502;DHT22;18952;52.516;13.460;2023-08-31T05:36:52;13.20;99.90
32502;DHT22;18952;52.516;13.460;2023-08-31T05:39:18;13.20;99.90
32502;DHT22;18952;52.516;13.460;2023-08-31T05:41:45;13.30;99.90
32502;DHT22;18952;52.516;13.460;2023-08-31T05:44:12;13.30;99.90
32502;DHT22;18952;52.516;13.460;2023-08-31T05:46:39;13.30;99.90
32502;DHT22;18952;52.516;13.460;2023-08-31T05:49:06;13.30;99.90
32502;DHT22;18952;52.516;13.460;2023-08-31T05:51:33;13.20;99.90
32502;DHT22;18952;52.516;13.460;2023-08-31T05:53:59;13.30;99.90
32502;DHT22;18952;52.516;13.460;2023-08-31T05:56:26;13.30;99.90
32502;DHT22;18952;52.516;13.460;2023-08-31T05:58:53;13.20;99.90
32502;DHT22;18952;52.516;13.460;2023-08-31T06:01:20;13.30;99.90
32502;DHT22;18952;52.516;13.460;2023-08-31T06:03:47;13.30;99.90
32502;DHT22;18952;52.516;13.460;2023-08-31T06:06:14;13.30;99.90
32502;DHT22;18952;52.516;13.460;2023-08-31T06:08:41;13.30;99.90
32502;DHT22;18952;52.516;13.460;2023-08-31T06:11:08;13.30;99.90
32502;DHT22;18952;52.516;13.460;2023-08-31T06:13:35;13.30;99.90
32502;DHT22;18952;52.516;13.460;2023-08-31T06:16:02;13.40;99.90
32502;DHT22;18952;52.516;13.460;2023-08-31T06:18:29;13.40;99.90
32502;DHT22;18952;52.516;13.460;2023-08-31T06:20:55;13.50;99.90
32502;DHT22;18952;52.516;13.460;2023-08-31T06:23:23;13.50;99.90
32502;DHT22;18952;52.516;13.460;2023-08-31T06:25:50;13.50;99.90
32502;DHT22;18952;52.516;13.460;2023-08-31T06:28:17;13.60;99.90
32502;DHT22;18952;52.516;13.460;2023-08-31T06:30:44;13.50;99.90
32502;DHT22;18952;52.516;13.460;2023-08-31T06:33:10;13.50;99.90
32502;DHT22;18952;52.516;13.460;2023-08-31T06:35:38;13.50;99.90
32502;DHT22;18952;52.516;13.460;2023-08-31T06:38:04;13.50;99.90
32502;DHT22;18952;52.516;13.460;2023-08-31T06:40:31;13.60;99.90
32502;DHT22;18952;52.516;13.460;2023-08-31T06:42:58;13.60;99.90
32502;DHT22;18952;52.516;13.460;2023-08-31T06:45:25;13.60;99.90
32502;DHT22;18952;52.516;13.460;2023-08-31T06:47:52;13.50;99.90
32502;DHT22;18952;52.516;13.460;2023-08-31T06:50:19;13.50;99.90
32502;DHT22;18952;52.516;13.460;2023-08-31T06:52:45;13.60;99.90
32502;DHT22;18952;52.516;13.460;2023-08-31T06:55:12;13.80;99.90
32502;DHT22;18952;52.516;13.460;2023-08-31T06:57:39;13.80;99.90
32502;DHT22;18952;52.516;13.460;2023-08-31T07:00:06;13.80;99.90
32502;DHT22;18952;52.516;13.460;2023-08-31T07:02:33;13.90;99.90
32502;DHT22;18952;52.516;13.460;2023-08-31T07:05:00;14.00;99.90
32502;DHT22;18952;52.516;13.460;2023-08-31T07:07:27;14.00;99.90
32502;DHT22;18952;52.516;13.460;2023-08-31T07:09:54;14.00;99.90
32502;DHT22;18952;52.516;13.460;2023-08-31T07:12:21;14.00;99.90
32502;DHT22;18952;52.516;13.460;2023-08-31T07:14:48;14.00;99.90
32502;DHT22;18952;52.516;13.460;2023-08-31T07:17:18;14.00;99.90
32502;DHT22;18952;52.516;13.460;2023-08-31T07:19:45;14.00;99.90
32502;DHT22;18952;52.516;13.460;2023-08-31T07:22:12;13.90;99.90
32502;DHT22;18952;52.516;13.460;2023-08-31T07:24:39;13.90;99.90
32502;DHT22;18952;52.516;13.460;2023-08-31T07:27:05;13.90;99.90
32502;DHT22;18952;52.516;13.460;2023-08-31T07:29:32;13.90;99.90
32502;DHT22;18952;52.516;13.460;2023-08-31T07:31:59;13.90;99.90
32502;DHT22;18952;52.516;13.460;2023-08-31T07:34:26;14.00;99.90
32502;DHT22;18952;52.516;13.460;2023-08-31T07:36:53;14.00;99.90
32502;DHT22;18952;52.516;13.460;2023-08-31T07:39:20;14.10;99.90
32502;DHT22;18952;52.516;13.460;2023-08-31T07:41:46;14.00;99.90
32502;DHT22;18952;52.516;13.460;2023-08-31T07:44:15;14.10;99.90
32502;DHT22;18952;52.516;13.460;2023-08-31T07:46:41;14.10;99.90
32502;DHT22;18952;52.516;13.460;2023-08-31T07:49:08;14.10;99.90
32502;DHT22;18952;52.516;13.460;2023-08-31T07:51:35;14.10;99.90
32502;DHT22;18952;52.516;13.460;2023-08-31T07:54:02;14.20;99.90
32502;DHT22;18952;52.516;13.460;2023-08-31T07:56:29;14.10;99.90
32502;DHT22;18952;52.516;13.460;2023-08-31T07:58:55;14.20;99.90
32502;DHT22;18952;52.516;13.460;2023-08-31T08:01:23;14.20;99.90
32502;DHT22;18952;52.516;13.460;2023-08-31T08:03:50;14.30;99.90
32502;DHT22;18952;52.516;13.460;2023-08-31T08:06:17;14.30;99.90
32502;DHT22;18952;52.516;13.460;2023-08-31T08:08:43;14.30;99.90
32502;DHT22;18952;52.516;13.460;2023-08-31T08:11:12;14.30;99.90
32502;DHT22;18952;52.516;13.460;2023-08-31T08:13:38;14.30;99.90
32502;DHT22;18952;52.516;13.460;2023-08-31T08:16:05;14.30;99.90
32502;DHT22;18952;52.516;13.460;2023-08-31T08:18:32;14.30;99.90
32502;DHT22;18952;52.516;13.460;2023-08-31T08:20:59;14.20;99.90
32502;DHT22;18952;52.516;13.460;2023-08-31T08:23:26;14.20;99.90
32502;DHT22;18952;52.516;13.460;2023-08-31T08:25:53;14.20;99.90
32502;DHT22;18952;52.516;13.460;2023-08-31T08:28:20;14.30;99.90
32502;DHT22;18952;52.516;13.460;2023-08-31T08:30:47;14.30;99.90
32502;DHT22;18952;52.516;13.460;2023-08-31T08:33:14;14.30;99.90
32502;DHT22;18952;52.516;13.460;2023-08-31T08:35:41;14.50;99.90
32502;DHT22;18952;52.516;13.460;2023-08-31T08:38:08;14.70;99.90
32502;DHT22;18952;52.516;13.460;2023-08-31T08:40:35;14.80;99.90
32502;DHT22;18952;52.516;13.460;2023-08-31T08:43:06;14.80;99.90
32502;DHT22;18952;52.516;13.460;2023-08-31T08:45:39;14.80;99.90
32502;DHT22;18952;52.516;13.460;2023-08-31T08:48:07;14.90;99.90
32502;DHT22;18952;52.516;13.460;2023-08-31T08:50:36;14.90;99.90
32502;DHT22;18952;52.516;13.460;2023-08-31T08:53:06;14.90;99.90
32502;DHT22;18952;52.516;13.460;2023-08-31T08:55:33;14.90;99.90
32502;DHT22;18952;52.516;13.460;2023-08-31T08:58:00;15.00;99.90
32502;DHT22;18952;52.516;13.460;2023-08-31T09:00:27;15.00;99.90
32502;DHT22;18952;52.516;13.460;2023-08-31T09:02:54;15.00;99.90
32502;DHT22;18952;52.516;13.460;2023-08-31T09:05:22;15.10;99.90
32502;DHT22;18952;52.516;13.460;2023-08-31T09:08:16;15.10;99.90
32502;DHT22;18952;52.516;13.460;2023-08-31T09:10:43;15.30;99.90
32502;DHT22;18952;52.516;13.460;2023-08-31T09:13:13;15.30;99.90
32502;DHT22;18952;52.516;13.460;2023-08-31T09:15:42;15.30;99.90
32502;DHT22;18952;52.516;13.460;2023-08-31T09:20:49;15.20;99.90
32502;DHT22;18952;52.516;13.460;2023-08-31T09:23:17;15.20;99.90
32502;DHT22;18952;52.516;13.460;2023-08-31T09:25:48;15.20;99.90
32502;DHT22;18952;52.516;13.460;2023-08-31T09:28:21;15.30;99.90
32502;DHT22;18952;52.516;13.460;2023-08-31T09:30:49;15.30;99.90
32502;DHT22;18952;52.516;13.460;2023-08-31T09:33:17;15.50;99.90
32502;DHT22;18952;52.516;13.460;2023-08-31T09:36:07;15.70;99.90
32502;DHT22;18952;52.516;13.460;2023-08-31T09:38:45;15.80;99.90
32502;DHT22;18952;52.516;13.460;2023-08-31T09:41:12;15.80;99.90
32502;DHT22;18952;52.516;13.460;2023-08-31T09:43:40;15.80;99.90
32502;DHT22;18952;52.516;13.460;2023-08-31T09:46:08;15.80;99.90
32502;DHT22;18952;52.516;13.460;2023-08-31T09:48:37;15.90;99.90
32502;DHT22;18952;52.516;13.460;2023-08-31T09:51:09;16.00;99.90
32502;DHT22;18952;52.516;13.460;2023-08-31T09:53:37;16.00;99.90
32502;DHT22;18952;52.516;13.460;2023-08-31T09:56:05;15.90;99.90
32502;DHT22;18952;52.516;13.460;2023-08-31T09:58:33;16.00;99.90
32502;DHT22;18952;52.516;13.460;2023-08-31T10:01:00;15.90;99.90
32502;DHT22;18952;52.516;13.460;2023-08-31T10:03:29;15.80;99.90
32502;DHT22;18952;52.516;13.460;2023-08-31T10:05:58;15.80;99.90
32502;DHT22;18952;52.516;13.460;2023-08-31T10:08:25;15.80;99.90
32502;DHT22;18952;52.516;13.460;2023-08-31T10:10:54;15.90;99.90
32502;DHT22;18952;52.516;13.460;2023-08-31T10:13:21;16.20;99.90
32502;DHT22;18952;52.516;13.460;2023-08-31T10:15:49;16.40;99.90
32502;DHT22;18952;52.516;13.460;2023-08-31T10:18:15;16.60;99.90
32502;DHT22;18952;52.516;13.460;2023-08-31T10:20:43;16.80;99.90
32502;DHT22;18952;52.516;13.460;2023-08-31T10:23:10;17.00;99.90
32502;DHT22;18952;52.516;13.460;2023-08-31T10:28:27;17.10;99.90
32502;DHT22;18952;52.516;13.460;2023-08-31T10:31:15;17.10;99.90
32502;DHT22;18952;52.516;13.460;2023-08-31T10:33:44;17.20;99.90
32502;DHT22;18952;52.516;13.460;2023-08-31T10:36:18;17.20;99.90
32502;DHT22;18952;52.516;13.460;2023-08-31T10:38:47;17.10;99.90
32502;DHT22;18952;52.516;13.460;2023-08-31T10:43:53;16.80;99.90
32502;DHT22;18952;52.516;13.460;2023-08-31T10:46:33;16.40;99.90
32502;DHT22;18952;52.516;13.460;2023-08-31T10:51:42;14.30;99.90
32502;DHT22;18952;52.516;13.460;2023-08-31T10:54:30;13.70;99.90
32502;DHT22;18952;52.516;13.460;2023-08-31T10:59:26;13.50;99.90
32502;DHT22;18952;52.516;13.460;2023-08-31T11:01:57;13.50;99.90
32502;DHT22;18952;52.516;13.460;2023-08-31T11:04:26;13.60;99.90
32502;DHT22;18952;52.516;13.460;2023-08-31T11:07:12;13.70;99.90
32502;DHT22;18952;52.516;13.460;2023-08-31T11:09:40;13.80;99.90
32502;DHT22;18952;52.516;13.460;2023-08-31T11:12:07;14.00;99.90
32502;DHT22;18952;52.516;13.460;2023-08-31T11:14:34;14.10;99.90
32502;DHT22;18952;52.516;13.460;2023-08-31T11:17:01;14.20;99.90
32502;DHT22;18952;52.516;13.460;2023-08-31T11:19:28;14.40;99.90
32502;DHT22;18952;52.516;13.460;2023-08-31T11:21:55;14.50;99.90
32502;DHT22;18952;52.516;13.460;2023-08-31T11:24:22;14.60;99.90
32502;DHT22;18952;52.516;13.460;2023-08-31T11:26:53;14.60;99.90
32502;DHT22;18952;52.516;13.460;2023-08-31T11:29:20;14.70;99.90
32502;DHT22;18952;52.516;13.460;2023-08-31T11:31:47;14.70;99.90
32502;DHT22;18952;52.516;13.460;2023-08-31T11:34:16;14.70;99.90
32502;DHT22;18952;52.516;13.460;2023-08-31T11:36:44;14.80;99.90
32502;DHT22;18952;52.516;13.460;2023-08-31T11:39:12;15.00;99.90
32502;DHT22;18952;52.516;13.460;2023-08-31T11:41:40;15.10;99.90
32502;DHT22;18952;52.516;13.460;2023-08-31T11:44:14;15.30;99.90
32502;DHT22;18952;52.516;13.460;2023-08-31T11:46:43;15.50;99.90
32502;DHT22;18952;52.516;13.460;2023-08-31T11:49:11;15.80;99.90
32502;DHT22;18952;52.516;13.460;2023-08-31T11:51:39;15.90;99.90
32502;DHT22;18952;52.516;13.460;2023-08-31T11:54:06;16.00;99.90
32502;DHT22;18952;52.516;13.460;2023-08-31T11:56:43;16.00;99.90
32502;DHT22;18952;52.516;13.460;2023-08-31T11:59:11;16.00;99.90
32502;DHT22;18952;52.516;13.460;2023-08-31T12:01:42;16.00;99.90
32502;DHT22;18952;52.516;13.460;2023-08-31T12:04:10;16.00;99.90
32502;DHT22;18952;52.516;13.460;2023-08-31T12:06:37;15.90;99.90
32502;DHT22;18952;52.516;13.460;2023-08-31T12:09:08;15.70;99.90
32502;DHT22;18952;52.516;13.460;2023-08-31T12:11:36;15.50;99.90
32502;DHT22;18952;52.516;13.460;2023-08-31T12:14:17;15.10;99.90
32502;DHT22;18952;52.516;13.460;2023-08-31T12:16:44;14.80;99.90
32502;DHT22;18952;52.516;13.460;2023-08-31T12:19:11;14.70;99.90
32502;DHT22;18952;52.516;13.460;2023-08-31T12:21:38;14.80;99.90
32502;DHT22;18952;52.516;13.460;2023-08-31T12:24:06;15.10;99.90
32502;DHT22;18952;52.516;13.460;2023-08-31T12:26:32;15.30;99.90
32502;DHT22;18952;52.516;13.460;2023-08-31T12:29:02;15.50;99.90
32502;DHT22;18952;52.516;13.460;2023-08-31T12:31:29;15.70;99.90
32502;DHT22;18952;52.516;13.460;2023-08-31T12:33:56;15.80;99.90
32502;DHT22;18952;52.516;13.460;2023-08-31T12:36:23;16.20;99.90
32502;DHT22;18952;52.516;13.460;2023-08-31T12:38:50;16.50;99.90
32502;DHT22;18952;52.516;13.460;2023-08-31T12:41:17;16.70;99.90
32502;DHT22;18952;52.516;13.460;2023-08-31T12:43:44;16.60;99.90
32502;DHT22;18952;52.516;13.460;2023-08-31T12:46:11;16.50;99.90
32502;DHT22;18952;52.516;13.460;2023-08-31T12:48:38;16.30;99.90
32502;DHT22;18952;52.516;13.460;2023-08-31T12:51:05;16.30;99.90
32502;DHT22;18952;52.516;13.460;2023-08-31T12:53:31;16.00;99.90
32502;DHT22;18952;52.516;13.460;2023-08-31T12:55:58;16.00;99.90
32502;DHT22;18952;52.516;13.460;2023-08-31T12:58:25;16.20;99.90
32502;DHT22;18952;52.516;13.460;2023-08-31T13:00:52;16.30;99.90
32502;DHT22;18952;52.516;13.460;2023-08-31T13:03:19;16.40;99.90
32502;DHT22;18952;52.516;13.460;2023-08-31T13:05:46;16.60;99.90
32502;DHT22;18952;52.516;13.460;2023-08-31T13:08:12;16.90;99.90
32502;DHT22;18952;52.516;13.460;2023-08-31T13:10:40;17.40;99.90
32502;DHT22;18952;52.516;13.460;2023-08-31T13:13:06;17.50;99.90
32502;DHT22;18952;52.516;13.460;2023-08-31T13:15:33;17.50;99.90
32502;DHT22;18952;52.516;13.460;2023-08-31T13:18:01;17.50;99.90
32502;DHT22;18952;52.516;13.460;2023-08-31T13:20:28;17.70;99.90
32502;DHT22;18952;52.516;13.460;2023-08-31T13:22:55;17.70;99.90
32502;DHT22;18952;52.516;13.460;2023-08-31T13:25:21;17.60;99.90
32502;DHT22;18952;52.516;13.460;2023-08-31T13:27:51;17.70;99.90
32502;DHT22;18952;52.516;13.460;2023-08-31T13:30:18;17.90;99.90
32502;DHT22;18952;52.516;13.460;2023-08-31T13:32:45;18.10;99.90
32502;DHT22;18952;52.516;13.460;2023-08-31T13:35:11;18.20;99.90
32502;DHT22;18952;52.516;13.460;2023-08-31T13:37:38;18.20;99.90
32502;DHT22;18952;52.516;13.460;2023-08-31T13:40:06;17.90;99.90
32502;DHT22;18952;52.516;13.460;2023-08-31T13:42:36;17.50;99.90
32502;DHT22;18952;52.516;13.460;2023-08-31T13:45:06;17.30;99.90
32502;DHT22;18952;52.516;13.460;2023-08-31T13:47:33;17.00;99.90
32502;DHT22;18952;52.516;13.460;2023-08-31T13:50:00;16.80;99.90
32502;DHT22;18952;52.516;13.460;2023-08-31T13:52:27;16.70;99.90
32502;DHT22;18952;52.516;13.460;2023-08-31T13:54:54;16.90;99.90
32502;DHT22;18952;52.516;13.460;2023-08-31T13:57:21;17.00;99.90
32502;DHT22;18952;52.516;13.460;2023-08-31T13:59:48;17.20;99.90
32502;DHT22;18952;52.516;13.460;2023-08-31T14:02:14;17.10;99.90
32502;DHT22;18952;52.516;13.460;2023-08-31T14:04:41;17.00;99.90
32502;DHT22;18952;52.516;13.460;2023-08-31T14:07:08;16.80;99.90
32502;DHT22;18952;52.516;13.460;2023-08-31T14:09:35;16.90;99.90
32502;DHT22;18952;52.516;13.460;2023-08-31T14:12:01;17.00;99.90
32502;DHT22;18952;52.516;13.460;2023-08-31T14:14:28;17.00;99.90
32502;DHT22;18952;52.516;13.460;2023-08-31T14:16:55;17.00;99.90
32502;DHT22;18952;52.516;13.460;2023-08-31T14:19:22;17.30;99.90
32502;DHT22;18952;52.516;13.460;2023-08-31T14:21:49;17.30;99.90
32502;DHT22;18952;52.516;13.460;2023-08-31T14:24:16;17.30;99.90
32502;DHT22;18952;52.516;13.460;2023-08-31T14:26:43;17.70;99.90
32502;DHT22;18952;52.516;13.460;2023-08-31T14:29:10;18.00;99.90
32502;DHT22;18952;52.516;13.460;2023-08-31T14:31:38;18.00;99.90
32502;DHT22;18952;52.516;13.460;2023-08-31T14:34:05;17.90;99.90
32502;DHT22;18952;52.516;13.460;2023-08-31T14:36:31;17.80;99.90
32502;DHT22;18952;52.516;13.460;2023-08-31T14:38:58;17.60;99.90
32502;DHT22;18952;52.516;13.460;2023-08-31T14:41:25;17.40;99.90
32502;DHT22;18952;52.516;13.460;2023-08-31T14:43:52;17.30;99.90
32502;DHT22;18952;52.516;13.460;2023-08-31T14:46:19;17.10;99.90
32502;DHT22;18952;52.516;13.460;2023-08-31T14:48:45;16.90;99.90
32502;DHT22;18952;52.516;13.460;2023-08-31T14:51:12;16.70;99.90
32502;DHT22;18952;52.516;13.460;2023-08-31T14:53:39;16.50;99.90
32502;DHT22;18952;52.516;13.460;2023-08-31T14:56:06;16.50;99.90
32502;DHT22;18952;52.516;13.460;2023-08-31T14:58:33;16.50;99.90
32502;DHT22;18952;52.516;13.460;2023-08-31T15:01:00;16.60;99.90
32502;DHT22;18952;52.516;13.460;2023-08-31T15:03:27;16.50;99.90
32502;DHT22;18952;52.516;13.460;2023-08-31T15:05:54;16.50;99.90
32502;DHT22;18952;52.516;13.460;2023-08-31T15:08:35;16.30;99.90
32502;DHT22;18952;52.516;13.460;2023-08-31T15:11:03;16.20;99.90
32502;DHT22;18952;52.516;13.460;2023-08-31T15:13:30;16.00;99.90
32502;DHT22;18952;52.516;13.460;2023-08-31T15:15:57;16.00;99.90
32502;DHT22;18952;52.516;13.460;2023-08-31T15:18:28;16.10;99.90
32502;DHT22;18952;52.516;13.460;2023-08-31T15:20:55;16.10;99.90
32502;DHT22;18952;52.516;13.460;2023-08-31T15:23:22;16.20;99.90
32502;DHT22;18952;52.516;13.460;2023-08-31T15:25:49;16.30;99.90
32502;DHT22;18952;52.516;13.460;2023-08-31T15:28:16;16.50;99.90
32502;DHT22;18952;52.516;13.460;2023-08-31T15:30:45;16.70;99.90
32502;DHT22;18952;52.516;13.460;2023-08-31T15:33:12;16.80;99.90
32502;DHT22;18952;52.516;13.460;2023-08-31T15:35:39;16.80;99.90
32502;DHT22;18952;52.516;13.460;2023-08-31T15:38:06;16.70;99.90